Time;durP1;ratioP1;P1;durP2;ratioP2;P2;SDS_P1;SDS_P2;PMS_P1;PMS_P2;Temp;Humidity;BMP_temperature;BMP_pressure;BME280_temperature;BME280_humidity;BME280_pressure;Samples;Min_cycle;Max_cycle;Signal;HPM_P1;HPM_P2
2023/08/11 00:00:28;;;;;;;1.98;0.38;;;;;;;;;;10413016;28;20236;-75
2023/08/11 00:05:30;;;;;;;0.40;0.40;;;;;;;;;;10411387;28;20265;-78
2023/08/11 00:10:31;;;;;;;2.08;0.90;;;;;;;;;;10408000;28;20230;-78
2023/08/11 00:15:34;;;;;;;0.77;0.40;;;;;;;;;;10408934;28;20620;-75
2023/08/11 00:20:35;;;;;;;0.30;0.30;;;;;;;;;;10391226;28;20261;-76
2023/08/11 00:25:36;;;;;;;1.60;0.43;;;;;;;;;;10406460;28;20211;-75
2023/08/11 00:30:37;;;;;;;0.50;0.50;;;;;;;;;;10414152;28;20735;-78
2023/08/11 00:35:42;;;;;;;1.08;0.60;;;;;;;;;;10379580;28;20242;-79
2023/08/11 00:40:43;;;;;;;0.40;0.40;;;;;;;;;;10406531;28;20230;-76
2023/08/11 00:45:49;;;;;;;0.30;0.30;;;;;;;;;;10377611;28;20241;-78
2023/08/11 00:50:50;;;;;;;0.30;0.30;;;;;;;;;;10406765;28;20818;-76
2023/08/11 00:55:51;;;;;;;0.52;0.52;;;;;;;;;;10408894;28;20239;-76
2023/08/11 01:00:53;;;;;;;0.80;0.75;;;;;;;;;;10409586;28;20288;-79
2023/08/11 01:06:18;;;;;;;1.23;0.80;;;;;;;;;;10413897;28;20302;-75
2023/08/11 01:11:29;;;;;;;0.90;0.82;;;;;;;;;;10395566;28;20219;-79
2023/08/11 01:16:32;;;;;;;0.38;0.38;;;;;;;;;;10394750;28;20740;-76
2023/08/11 01:21:35;;;;;;;0.45;0.40;;;;;;;;;;10417239;28;20219;-78
2023/08/11 01:26:36;;;;;;;0.40;0.40;;;;;;;;;;10415895;28;20223;-79
2023/08/11 01:31:37;;;;;;;0.57;0.50;;;;;;;;;;10412336;28;20218;-77
2023/08/11 01:36:41;;;;;;;2.35;0.52;;;;;;;;;;10402151;28;20926;-77
2023/08/11 01:41:42;;;;;;;0.30;0.30;;;;;;;;;;10416532;28;20701;-78
2023/08/11 01:46:44;;;;;;;1.55;0.40;;;;;;;;;;10392761;28;20223;-78
2023/08/11 01:51:45;;;;;;;1.88;0.50;;;;;;;;;;10420356;28;20604;-81
2023/08/11 01:56:46;;;;;;;2.22;0.35;;;;;;;;;;10414805;28;20222;-79
2023/08/11 02:01:48;;;;;;;0.50;0.45;;;;;;;;;;10383778;28;20223;-78
2023/08/11 02:06:49;;;;;;;0.40;0.40;;;;;;;;;;10419792;28;20214;-80
2023/08/11 02:11:50;;;;;;;3.65;0.60;;;;;;;;;;10424930;28;20745;-79
2023/08/11 02:16:51;;;;;;;1.48;0.40;;;;;;;;;;10420324;28;20250;-80
2023/08/11 02:21:53;;;;;;;1.67;0.40;;;;;;;;;;10426196;28;20249;-80
2023/08/11 02:26:54;;;;;;;2.00;0.93;;;;;;;;;;10431249;28;20807;-79
2023/08/11 02:31:55;;;;;;;0.30;0.30;;;;;;;;;;10403583;28;20372;-79
2023/08/11 02:36:56;;;;;;;0.90;0.40;;;;;;;;;;10398471;28;20207;-76
2023/08/11 02:41:57;;;;;;;2.13;0.35;;;;;;;;;;10414692;28;20215;-80
2023/08/11 02:46:58;;;;;;;0.40;0.40;;;;;;;;;;10403002;28;20211;-77
2023/08/11 02:51:59;;;;;;;3.28;0.35;;;;;;;;;;10412160;28;20301;-80
2023/08/11 02:57:01;;;;;;;0.32;0.32;;;;;;;;;;10405878;28;20317;-77
2023/08/11 03:02:02;;;;;;;0.40;0.40;;;;;;;;;;10390605;28;20269;-76
2023/08/11 03:07:05;;;;;;;0.57;0.40;;;;;;;;;;10395132;28;20294;-76
2023/08/11 03:12:07;;;;;;;0.40;0.40;;;;;;;;;;10418621;28;20231;-77
2023/08/11 03:17:10;;;;;;;7.13;0.60;;;;;;;;;;10404239;28;20214;-79
2023/08/11 03:22:13;;;;;;;2.08;0.45;;;;;;;;;;10415732;28;20215;-78
2023/08/11 03:27:14;;;;;;;4.13;0.43;;;;;;;;;;10417004;28;20686;-79
2023/08/11 03:32:16;;;;;;;1.42;0.50;;;;;;;;;;10426081;28;20297;-80
2023/08/11 03:37:18;;;;;;;0.95;0.50;;;;;;;;;;10419153;28;20349;-77
2023/08/11 03:42:19;;;;;;;0.47;0.43;;;;;;;;;;10409883;28;20230;-79
2023/08/11 03:47:22;;;;;;;3.22;0.35;;;;;;;;;;10392427;28;20226;-80
2023/08/11 03:52:24;;;;;;;1.65;0.50;;;;;;;;;;10404046;28;20250;-79
2023/08/11 03:57:28;;;;;;;1.17;0.40;;;;;;;;;;10408115;28;20820;-81
2023/08/11 04:02:29;;;;;;;6.15;0.43;;;;;;;;;;10395112;28;20345;-80
2023/08/11 04:07:31;;;;;;;0.50;0.50;;;;;;;;;;10407601;28;20214;-78
2023/08/11 04:12:32;;;;;;;0.50;0.50;;;;;;;;;;10413328;28;20234;-79
2023/08/11 04:17:33;;;;;;;0.40;0.40;;;;;;;;;;10410729;28;20226;-79
2023/08/11 04:22:35;;;;;;;0.38;0.38;;;;;;;;;;10413386;28;20243;-78
2023/08/11 04:27:36;;;;;;;1.27;0.68;;;;;;;;;;10420091;28;20756;-75
2023/08/11 04:32:37;;;;;;;0.40;0.40;;;;;;;;;;10416929;28;20217;-78
2023/08/11 04:37:39;;;;;;;0.40;0.40;;;;;;;;;;10416185;28;20219;-75
2023/08/11 04:42:41;;;;;;;3.10;0.73;;;;;;;;;;10415706;28;20729;-79
2023/08/11 04:47:44;;;;;;;1.63;0.40;;;;;;;;;;10403956;28;20222;-79
2023/08/11 04:52:48;;;;;;;2.05;0.40;;;;;;;;;;10392273;28;20324;-76
2023/08/11 04:57:49;;;;;;;0.45;0.40;;;;;;;;;;10409499;28;20218;-81
2023/08/11 05:02:54;;;;;;;0.85;0.50;;;;;;;;;;10410011;28;20932;-77
2023/08/11 05:07:55;;;;;;;0.43;0.40;;;;;;;;;;10409284;28;20259;-79
2023/08/11 05:12:56;;;;;;;0.50;0.50;;;;;;;;;;10403347;28;20231;-76
2023/08/11 05:17:57;;;;;;;0.65;0.60;;;;;;;;;;10421375;28;20222;-77
2023/08/11 05:22:58;;;;;;;0.73;0.40;;;;;;;;;;10410068;28;20704;-77
2023/08/11 05:28:00;;;;;;;0.98;0.75;;;;;;;;;;10409930;28;20211;-78
2023/08/11 05:33:01;;;;;;;0.50;0.50;;;;;;;;;;10419478;28;20245;-79
2023/08/11 05:38:02;;;;;;;0.40;0.40;;;;;;;;;;10420779;28;20222;-80
2023/08/11 05:43:03;;;;;;;4.70;0.50;;;;;;;;;;10421927;28;20218;-81
2023/08/11 05:48:04;;;;;;;0.40;0.40;;;;;;;;;;10414444;28;20219;-79
2023/08/11 05:53:06;;;;;;;2.45;0.60;;;;;;;;;;10411152;28;20603;-79
2023/08/11 05:58:07;;;;;;;0.50;0.50;;;;;;;;;;10414990;28;20259;-82
2023/08/11 06:03:08;;;;;;;0.47;0.47;;;;;;;;;;10411334;28;20313;-79
2023/08/11 06:08:09;;;;;;;2.30;0.80;;;;;;;;;;10407864;28;20242;-79
2023/08/11 06:13:10;;;;;;;0.50;0.43;;;;;;;;;;10418498;28;20261;-77
2023/08/11 06:18:11;;;;;;;3.35;0.52;;;;;;;;;;10409553;28;20704;-77
2023/08/11 06:23:12;;;;;;;2.30;0.60;;;;;;;;;;10407284;28;20242;-80
2023/08/11 06:28:15;;;;;;;0.98;0.80;;;;;;;;;;10394031;28;20221;-78
2023/08/11 06:33:16;;;;;;;0.80;0.80;;;;;;;;;;10417489;28;20215;-79
2023/08/11 06:38:17;;;;;;;0.93;0.88;;;;;;;;;;10408077;28;20223;-79
2023/08/11 06:43:18;;;;;;;1.02;0.75;;;;;;;;;;10398600;28;20214;-80
2023/08/11 06:48:19;;;;;;;0.55;0.50;;;;;;;;;;10410470;28;20957;-79
2023/08/11 06:53:20;;;;;;;1.25;0.65;;;;;;;;;;10384136;28;20246;-80
2023/08/11 06:58:21;;;;;;;0.70;0.70;;;;;;;;;;10405401;28;20219;-77
2023/08/11 07:03:22;;;;;;;7.53;0.60;;;;;;;;;;10408963;28;20211;-78
2023/08/11 07:08:23;;;;;;;0.70;0.70;;;;;;;;;;10404554;28;20215;-80
2023/08/11 07:13:24;;;;;;;3.20;1.08;;;;;;;;;;10384656;28;20784;-78
2023/08/11 07:18:27;;;;;;;0.80;0.50;;;;;;;;;;10385148;28;20233;-78
2023/08/11 07:23:28;;;;;;;0.43;0.43;;;;;;;;;;10404550;28;20257;-76
2023/08/11 07:28:29;;;;;;;3.42;0.85;;;;;;;;;;10412209;28;20228;-76
2023/08/11 07:33:30;;;;;;;1.27;0.70;;;;;;;;;;10412094;28;20234;-78
2023/08/11 07:38:31;;;;;;;0.75;0.50;;;;;;;;;;10414047;28;20762;-81
2023/08/11 07:43:32;;;;;;;1.85;0.60;;;;;;;;;;10417775;28;20253;-78
2023/08/11 07:48:33;;;;;;;0.73;0.50;;;;;;;;;;10418407;28;20301;-80
2023/08/11 07:53:36;;;;;;;1.27;0.60;;;;;;;;;;10410846;28;20219;-80
2023/08/11 07:58:37;;;;;;;2.42;0.40;;;;;;;;;;10414764;28;20660;-79
2023/08/11 08:03:38;;;;;;;0.60;0.60;;;;;;;;;;10413029;28;20704;-79
2023/08/11 08:08:39;;;;;;;0.60;0.60;;;;;;;;;;10416996;28;20222;-79
2023/08/11 08:13:40;;;;;;;1.05;0.55;;;;;;;;;;10419592;28;20254;-79
2023/08/11 08:18:41;;;;;;;0.75;0.57;;;;;;;;;;10402411;28;20226;-79
2023/08/11 08:23:42;;;;;;;5.32;0.50;;;;;;;;;;10418022;28;20318;-80
2023/08/11 08:28:43;;;;;;;0.68;0.47;;;;;;;;;;10401904;28;20301;-78
2023/08/11 08:33:44;;;;;;;4.75;0.43;;;;;;;;;;10399686;28;20219;-75
2023/08/11 08:38:46;;;;;;;1.98;0.60;;;;;;;;;;10410539;28;20219;-80
2023/08/11 08:43:47;;;;;;;0.70;0.68;;;;;;;;;;10415882;28;20215;-78
2023/08/11 08:48:53;;;;;;;2.53;0.50;;;;;;;;;;10417380;28;20297;-79
2023/08/11 08:53:54;;;;;;;0.52;0.50;;;;;;;;;;10416677;28;20215;-80
2023/08/11 08:58:55;;;;;;;2.75;0.50;;;;;;;;;;10419064;28;20223;-80
2023/08/11 09:03:56;;;;;;;0.40;0.40;;;;;;;;;;10414958;28;20212;-77
2023/08/11 09:08:59;;;;;;;0.85;0.30;;;;;;;;;;10394847;28;20221;-78
2023/08/11 09:14:03;;;;;;;0.95;0.47;;;;;;;;;;10416285;28;20245;-82
2023/08/11 09:19:07;;;;;;;0.52;0.40;;;;;;;;;;10413699;28;20222;-78
2023/08/11 09:24:11;;;;;;;1.08;0.77;;;;;;;;;;10421168;28;20584;-79
2023/08/11 09:29:14;;;;;;;0.40;0.40;;;;;;;;;;10413951;28;20286;-80
2023/08/11 09:34:16;;;;;;;0.68;0.30;;;;;;;;;;10421704;28;20216;-82
2023/08/11 09:39:18;;;;;;;3.72;0.30;;;;;;;;;;10419029;28;20223;-80
2023/08/11 09:44:19;;;;;;;0.38;0.30;;;;;;;;;;10423139;28;20341;-80
2023/08/11 09:49:20;;;;;;;0.30;0.30;;;;;;;;;;10422537;28;20215;-80
2023/08/11 09:54:21;;;;;;;1.10;0.60;;;;;;;;;;10423310;28;20726;-80
2023/08/11 09:59:24;;;;;;;0.30;0.30;;;;;;;;;;10427955;28;20230;-80
2023/08/11 10:04:25;;;;;;;1.17;0.30;;;;;;;;;;10417283;28;20215;-78
2023/08/11 10:09:28;;;;;;;0.77;0.35;;;;;;;;;;10407594;28;20222;-80
2023/08/11 10:14:29;;;;;;;0.30;0.30;;;;;;;;;;10426493;28;20258;-82
2023/08/11 10:19:33;;;;;;;0.20;0.20;;;;;;;;;;10425349;28;20232;-83
2023/08/11 10:24:37;;;;;;;2.67;0.40;;;;;;;;;;10423876;28;20256;-81
2023/08/11 10:29:38;;;;;;;0.30;0.30;;;;;;;;;;10428131;28;20234;-80
2023/08/11 10:34:39;;;;;;;0.47;0.30;;;;;;;;;;10431575;28;20261;-81
2023/08/11 10:39:40;;;;;;;0.28;0.28;;;;;;;;;;10425854;28;20218;-80
2023/08/11 10:44:44;;;;;;;0.30;0.30;;;;;;;;;;10420222;28;20245;-79
2023/08/11 10:49:46;;;;;;;0.30;0.30;;;;;;;;;;10423732;28;20222;-78
2023/08/11 10:54:51;;;;;;;0.28;0.20;;;;;;;;;;10421876;28;20224;-80
2023/08/11 10:59:52;;;;;;;0.30;0.30;;;;;;;;;;10431934;28;20234;-83
2023/08/11 11:04:53;;;;;;;1.20;0.38;;;;;;;;;;10431024;28;20211;-82
2023/08/11 11:09:54;;;;;;;0.30;0.30;;;;;;;;;;10425867;28;20237;-84
2023/08/11 11:14:55;;;;;;;0.63;0.25;;;;;;;;;;10430918;28;20230;-81
2023/08/11 11:19:56;;;;;;;0.30;0.30;;;;;;;;;;10423284;28;20280;-81
2023/08/11 11:25:02;;;;;;;0.25;0.25;;;;;;;;;;10423767;28;20240;-79
2023/08/11 11:30:03;;;;;;;0.30;0.30;;;;;;;;;;10423892;28;20785;-82
2023/08/11 11:35:05;;;;;;;0.20;0.20;;;;;;;;;;10429048;28;20217;-81
2023/08/11 11:40:07;;;;;;;0.30;0.30;;;;;;;;;;10420878;28;20211;-82
2023/08/11 11:45:10;;;;;;;0.20;0.20;;;;;;;;;;10427256;28;20187;-83
2023/08/11 11:50:11;;;;;;;0.40;0.40;;;;;;;;;;10431918;28;20787;-82
2023/08/11 11:55:12;;;;;;;0.40;0.25;;;;;;;;;;10425865;28;20194;-83
2023/08/11 12:00:18;;;;;;;0.30;0.30;;;;;;;;;;10428190;28;20207;-81
2023/08/11 12:05:19;;;;;;;0.30;0.30;;;;;;;;;;10416837;28;20191;-83
2023/08/11 12:10:30;;;;;;;0.47;0.30;;;;;;;;;;10411504;28;20230;-84
2023/08/11 12:15:31;;;;;;;0.35;0.28;;;;;;;;;;10425204;28;20306;-83
2023/08/11 12:20:35;;;;;;;0.30;0.30;;;;;;;;;;10428703;28;20241;-84
2023/08/11 12:25:36;;;;;;;0.20;0.20;;;;;;;;;;10425091;28;20218;-79
2023/08/11 12:30:37;;;;;;;0.22;0.22;;;;;;;;;;10413147;28;20219;-83
2023/08/11 12:35:38;;;;;;;0.20;0.20;;;;;;;;;;10414331;28;20210;-84
2023/08/11 12:40:43;;;;;;;2.38;0.30;;;;;;;;;;10397954;28;20219;-82
2023/08/11 12:45:45;;;;;;;0.20;0.20;;;;;;;;;;10426528;28;20215;-82
2023/08/11 12:50:46;;;;;;;0.25;0.25;;;;;;;;;;10423381;28;20222;-82
2023/08/11 12:55:47;;;;;;;1.88;0.30;;;;;;;;;;10426296;28;20218;-83
2023/08/11 13:00:48;;;;;;;0.30;0.30;;;;;;;;;;10432175;28;20261;-82
2023/08/11 13:05:49;;;;;;;0.30;0.30;;;;;;;;;;10430146;28;20298;-86
2023/08/11 13:10:50;;;;;;;1.17;0.20;;;;;;;;;;10434134;28;20314;-82
2023/08/11 13:15:51;;;;;;;0.52;0.20;;;;;;;;;;10431497;28;20254;-81
2023/08/11 13:20:52;;;;;;;0.20;0.20;;;;;;;;;;10402370;28;20223;-82
2023/08/11 13:25:53;;;;;;;0.30;0.30;;;;;;;;;;10416015;28;20234;-81
2023/08/11 13:30:54;;;;;;;0.47;0.30;;;;;;;;;;10435566;28;20217;-84
2023/08/11 13:35:55;;;;;;;1.48;0.20;;;;;;;;;;10436766;28;20217;-84
2023/08/11 13:40:57;;;;;;;0.30;0.30;;;;;;;;;;10435749;28;20490;-85
2023/08/11 13:45:59;;;;;;;0.30;0.30;;;;;;;;;;10433470;28;20219;-83
2023/08/11 13:51:00;;;;;;;0.45;0.20;;;;;;;;;;10432261;28;20219;-82
2023/08/11 13:56:01;;;;;;;0.30;0.30;;;;;;;;;;10433966;28;20206;-82
2023/08/11 14:01:02;;;;;;;0.22;0.22;;;;;;;;;;10433750;28;20212;-83
2023/08/11 14:06:03;;;;;;;0.28;0.28;;;;;;;;;;10437362;28;20241;-85
2023/08/11 14:11:04;;;;;;;0.38;0.20;;;;;;;;;;10416183;28;20313;-85
2023/08/11 14:16:05;;;;;;;0.20;0.20;;;;;;;;;;10433732;28;20226;-82
2023/08/11 14:21:06;;;;;;;5.18;0.25;;;;;;;;;;10419987;28;20713;-84
2023/08/11 14:26:08;;;;;;;1.63;0.20;;;;;;;;;;10427721;28;20281;-81
2023/08/11 14:31:09;;;;;;;0.20;0.20;;;;;;;;;;10418489;28;20231;-83
2023/08/11 14:36:10;;;;;;;1.27;0.20;;;;;;;;;;10431920;28;20206;-81
2023/08/11 14:41:11;;;;;;;0.35;0.25;;;;;;;;;;10430642;28;20228;-83
2023/08/11 14:46:12;;;;;;;0.20;0.20;;;;;;;;;;10429187;28;20700;-82
2023/08/11 14:51:14;;;;;;;0.30;0.30;;;;;;;;;;10429783;28;20241;-84
2023/08/11 14:56:15;;;;;;;1.90;0.22;;;;;;;;;;10435907;28;20203;-83
2023/08/11 15:01:16;;;;;;;1.60;0.22;;;;;;;;;;10414665;28;20290;-83
2023/08/11 15:06:17;;;;;;;0.30;0.30;;;;;;;;;;10417160;28;20218;-83
2023/08/11 15:11:18;;;;;;;0.32;0.20;;;;;;;;;;10428872;28;20215;-83
2023/08/11 15:16:19;;;;;;;0.20;0.20;;;;;;;;;;10351455;28;20227;-82
2023/08/11 15:21:22;;;;;;;0.45;0.30;;;;;;;;;;10350649;28;20227;-83
2023/08/11 15:26:25;;;;;;;0.30;0.30;;;;;;;;;;10350180;28;20654;-82
2023/08/11 15:31:26;;;;;;;1.15;0.30;;;;;;;;;;10348261;28;20227;-82
2023/08/11 15:36:27;;;;;;;0.20;0.20;;;;;;;;;;10348488;28;20212;-83
2023/08/11 15:41:28;;;;;;;0.20;0.20;;;;;;;;;;10363716;28;20235;-84
2023/08/11 15:46:29;;;;;;;0.60;0.20;;;;;;;;;;10355161;28;20255;-83
2023/08/11 15:51:30;;;;;;;0.30;0.30;;;;;;;;;;10363351;28;20655;-85
2023/08/11 15:56:31;;;;;;;1.38;0.30;;;;;;;;;;10366721;28;20709;-84
2023/08/11 16:01:33;;;;;;;0.20;0.20;;;;;;;;;;10353467;28;20240;-86
2023/08/11 16:06:34;;;;;;;0.20;0.20;;;;;;;;;;10331263;28;20212;-81
2023/08/11 16:11:35;;;;;;;1.85;0.20;;;;;;;;;;10340200;28;20408;-84
2023/08/11 16:16:36;;;;;;;0.68;0.30;;;;;;;;;;10349708;28;20224;-81
2023/08/11 16:21:38;;;;;;;1.08;0.22;;;;;;;;;;10344444;28;20273;-84
2023/08/11 16:26:39;;;;;;;1.48;0.40;;;;;;;;;;10351189;28;20304;-84
2023/08/11 16:31:40;;;;;;;0.40;0.40;;;;;;;;;;10366493;28;20288;-82
2023/08/11 16:36:41;;;;;;;0.52;0.52;;;;;;;;;;10363515;28;20299;-81
2023/08/11 16:41:42;;;;;;;0.68;0.30;;;;;;;;;;10363990;28;20219;-81
2023/08/11 16:46:43;;;;;;;0.43;0.43;;;;;;;;;;10360751;28;20301;-82
2023/08/11 16:51:44;;;;;;;1.48;0.40;;;;;;;;;;10357183;28;20227;-83
2023/08/11 16:56:45;;;;;;;0.68;0.30;;;;;;;;;;10354651;28;20244;-83
2023/08/11 17:01:46;;;;;;;1.80;0.30;;;;;;;;;;10357029;28;20243;-86
2023/08/11 17:06:47;;;;;;;0.30;0.30;;;;;;;;;;10355441;28;20266;-83
2023/08/11 17:11:48;;;;;;;4.68;0.40;;;;;;;;;;10352312;28;20221;-86
2023/08/11 17:16:49;;;;;;;0.70;0.70;;;;;;;;;;10437360;28;20214;-84
2023/08/11 17:21:51;;;;;;;0.50;0.50;;;;;;;;;;10435668;28;20227;-81
2023/08/11 17:26:53;;;;;;;0.30;0.30;;;;;;;;;;10435393;28;20214;-81
2023/08/11 17:31:54;;;;;;;0.43;0.43;;;;;;;;;;10430837;28;20236;-82
2023/08/11 17:36:55;;;;;;;1.73;0.30;;;;;;;;;;10446071;28;20906;-84
2023/08/11 17:42:03;;;;;;;1.75;0.50;;;;;;;;;;10446845;28;20581;-83
2023/08/11 17:47:04;;;;;;;1.00;0.40;;;;;;;;;;10436680;28;20623;-83
2023/08/11 17:52:05;;;;;;;0.57;0.50;;;;;;;;;;10435246;28;20218;-83
2023/08/11 17:57:06;;;;;;;0.30;0.30;;;;;;;;;;10428924;28;20211;-84
2023/08/11 18:02:07;;;;;;;0.50;0.40;;;;;;;;;;10432932;28;20729;-80
2023/08/11 18:07:08;;;;;;;0.43;0.43;;;;;;;;;;10429514;28;20225;-83
2023/08/11 18:12:10;;;;;;;0.65;0.40;;;;;;;;;;10439036;28;20221;-83
2023/08/11 18:17:11;;;;;;;4.55;0.40;;;;;;;;;;10462230;28;20221;-83
2023/08/11 18:22:12;;;;;;;0.40;0.40;;;;;;;;;;10465253;28;20225;-84
2023/08/11 18:27:13;;;;;;;0.88;0.40;;;;;;;;;;10455940;28;20284;-80
2023/08/11 18:32:14;;;;;;;1.55;0.50;;;;;;;;;;10448464;28;20246;-81
2023/08/11 18:37:15;;;;;;;0.82;0.70;;;;;;;;;;10411670;28;20885;-81
2023/08/11 18:42:16;;;;;;;0.50;0.50;;;;;;;;;;10430148;28;20219;-83
2023/08/11 18:47:17;;;;;;;0.50;0.50;;;;;;;;;;10421228;28;20318;-81
2023/08/11 18:52:18;;;;;;;0.50;0.50;;;;;;;;;;10432130;28;20210;-84
2023/08/11 18:57:19;;;;;;;0.60;0.60;;;;;;;;;;10446385;28;20214;-81
2023/08/11 19:02:20;;;;;;;1.27;0.70;;;;;;;;;;10423388;28;20309;-81
2023/08/11 19:07:21;;;;;;;0.73;0.73;;;;;;;;;;10427091;28;20776;-85
2023/08/11 19:12:22;;;;;;;0.73;0.63;;;;;;;;;;10426831;28;20488;-82
2023/08/11 19:17:23;;;;;;;1.98;1.00;;;;;;;;;;10447007;28;20218;-83
2023/08/11 19:22:24;;;;;;;0.93;0.77;;;;;;;;;;10446730;28;20350;-80
2023/08/11 19:27:25;;;;;;;1.20;0.70;;;;;;;;;;10442376;28;20231;-81
2023/08/11 19:32:26;;;;;;;0.90;0.80;;;;;;;;;;10442440;28;20246;-83
2023/08/11 19:37:27;;;;;;;2.47;1.08;;;;;;;;;;10434344;28;20277;-82
2023/08/11 19:42:28;;;;;;;1.95;1.77;;;;;;;;;;10426525;28;20222;-82
2023/08/11 19:47:29;;;;;;;1.92;1.83;;;;;;;;;;10413328;28;20297;-81
2023/08/11 19:52:31;;;;;;;2.42;1.67;;;;;;;;;;10431301;28;20285;-82
2023/08/11 19:57:32;;;;;;;1.27;1.08;;;;;;;;;;10428829;28;20215;-80
2023/08/11 20:02:33;;;;;;;1.20;1.17;;;;;;;;;;10407187;28;20241;-83
2023/08/11 20:07:34;;;;;;;2.08;1.10;;;;;;;;;;10416936;28;20222;-79
2023/08/11 20:12:35;;;;;;;0.85;0.85;;;;;;;;;;10405341;28;20293;-83
2023/08/11 20:17:36;;;;;;;1.92;1.70;;;;;;;;;;10425553;28;20225;-80
2023/08/11 20:22:37;;;;;;;1.00;1.00;;;;;;;;;;10419913;28;20219;-80
2023/08/11 20:27:38;;;;;;;2.17;0.80;;;;;;;;;;10405847;28;20568;-82
2023/08/11 20:32:39;;;;;;;1.20;1.10;;;;;;;;;;10414086;28;20257;-81
2023/08/11 20:37:40;;;;;;;0.73;0.73;;;;;;;;;;10418217;28;20671;-85
2023/08/11 20:42:41;;;;;;;1.58;1.40;;;;;;;;;;10420673;28;20225;-81
2023/08/11 20:47:42;;;;;;;1.25;1.02;;;;;;;;;;10417178;28;20305;-82
2023/08/11 20:52:43;;;;;;;2.08;1.30;;;;;;;;;;10416508;28;20777;-81
2023/08/11 20:57:44;;;;;;;2.58;0.90;;;;;;;;;;10420313;28;20217;-83
2023/08/11 21:02:45;;;;;;;2.92;0.68;;;;;;;;;;10419859;28;20747;-82
2023/08/11 21:07:46;;;;;;;0.65;0.60;;;;;;;;;;10417547;28;20211;-81
2023/08/11 21:12:47;;;;;;;2.75;1.20;;;;;;;;;;10419818;28;20840;-82
2023/08/11 21:17:48;;;;;;;1.00;0.50;;;;;;;;;;10415633;28;20782;-81
2023/08/11 21:22:49;;;;;;;0.75;0.60;;;;;;;;;;10429184;28;20241;-81
2023/08/11 21:27:50;;;;;;;1.75;0.55;;;;;;;;;;10436965;28;20270;-80
2023/08/11 21:32:51;;;;;;;0.60;0.60;;;;;;;;;;10435217;28;20235;-80
2023/08/11 21:37:53;;;;;;;3.03;0.70;;;;;;;;;;10431819;28;20731;-80
2023/08/11 21:42:54;;;;;;;0.90;0.90;;;;;;;;;;10433282;28;20310;-81
2023/08/11 21:47:55;;;;;;;7.97;1.48;;;;;;;;;;10429270;28;20206;-81
2023/08/11 21:52:56;;;;;;;0.70;0.70;;;;;;;;;;10433188;28;20218;-79
2023/08/11 21:57:57;;;;;;;5.28;1.35;;;;;;;;;;10433691;28;20222;-81
2023/08/11 22:02:58;;;;;;;2.28;0.70;;;;;;;;;;10422551;28;20211;-81
2023/08/11 22:07:59;;;;;;;2.83;1.55;;;;;;;;;;10427151;28;20210;-80
2023/08/11 22:13:00;;;;;;;6.50;1.65;;;;;;;;;;10432666;28;20234;-80
2023/08/11 22:18:01;;;;;;;1.75;1.65;;;;;;;;;;10427438;28;20300;-80
2023/08/11 22:23:02;;;;;;;1.05;1.05;;;;;;;;;;10426252;28;20246;-84
2023/08/11 22:28:04;;;;;;;3.33;2.58;;;;;;;;;;10412748;28;20581;-80
2023/08/11 22:33:05;;;;;;;12.35;5.05;;;;;;;;;;10424477;28;20230;-82
2023/08/11 22:38:06;;;;;;;12.35;6.30;;;;;;;;;;10427175;28;20736;-79
2023/08/11 22:43:07;;;;;;;13.05;7.43;;;;;;;;;;10429206;28;20214;-80
2023/08/11 22:48:08;;;;;;;8.70;4.85;;;;;;;;;;10422020;28;20226;-81
2023/08/11 22:53:09;;;;;;;9.68;4.60;;;;;;;;;;10404257;28;20566;-80
2023/08/11 22:58:10;;;;;;;6.70;5.32;;;;;;;;;;10421001;28;20218;-80
2023/08/11 23:03:11;;;;;;;10.90;6.80;;;;;;;;;;10400763;28;20588;-82
2023/08/11 23:08:12;;;;;;;15.07;7.57;;;;;;;;;;10415829;28;20214;-80
2023/08/11 23:13:15;;;;;;;12.48;8.02;;;;;;;;;;10421706;28;20234;-80
2023/08/11 23:18:16;;;;;;;10.10;5.88;;;;;;;;;;10407738;28;20284;-82
2023/08/11 23:23:17;;;;;;;5.32;2.83;;;;;;;;;;10418299;28;20268;-80
2023/08/11 23:28:21;;;;;;;2.00;1.85;;;;;;;;;;10423360;28;20215;-80
2023/08/11 23:33:22;;;;;;;1.30;1.00;;;;;;;;;;10390701;28;20302;-82
2023/08/11 23:38:23;;;;;;;0.88;0.65;;;;;;;;;;10415258;28;20741;-81
2023/08/11 23:43:24;;;;;;;0.93;0.93;;;;;;;;;;10417759;28;20219;-81
2023/08/11 23:48:25;;;;;;;3.03;0.60;;;;;;;;;;10417210;28;20310;-80
2023/08/11 23:53:26;;;;;;;1.05;0.57;;;;;;;;;;10418914;28;20221;-80
2023/08/11 23:58:27;;;;;;;0.75;0.75;;;;;;;;;;10419096;28;20306;-80
